Terminal Aerodrome Forecast
Issued by NWS

Home | Current Version | Previous Version | Text Only | Print | Product List | Glossary On
Versions: 1 2 3 4 5 6 7 8 9 10 11 12 13 14 15 16 17
883
FTUS41 KGYX 090531
TAFAUG
TAF
KAUG 090531Z 0906/1006 36012KT 1SM -SN OVC012
     FM091100 36010KT 3SM -SN BR OVC020
     FM091400 36007KT 6SM -SHSN OVC025=

USA.gov is the U.S. government's official web portal to all federal, state and local government web resources and services.